LDZA

Zagreb Airport

Airport
ICAO code
LDZA
IATA Code
ZAG
Summary
ICAO Region
EUR
ICAO Territory
Location

Velika Gorica, Zagreb

Serving
Zagreb
Elevation
353 ft
Coordinates
45° 44' 34" N , 16° 4' 8" E
KCC
Metar
Observation
LDZA 250830Z 08003KT 050V130 9999 -RA FEW025 14/11 Q1014 NOSIG
Station
Zagreb / Pleso
Date/Time
2022-09-25 08:30:00
Wind direction
80°
Wind speed
03 kts
Lowest cloud amount
few clouds
Temperature
14°C
Dew point
11°C
Humidity
82%
QNH
1014 hPa
Weather condition
light rain

Description

International airport serving capital of Croatia.

Climatology

Temperate Marine climate/Oceanic climate (Köppen climate classification Cfb).

Runways

Designator Length Width Surface Rops
5/23 3252 45 ASP Yes/Yes

Airport map

Aerial View

SKYbrary Partners:

Safety knowledge contributed by: